Terminal Aerodrome Forecast
Issued by NWS Corpus Christi, TX

Home | Current Version | Previous Version | Text Only | Print | Product List | Glossary On
Versions: 1 2 3 4 5 6 7 8 9 10 11 12 13 14 15 16 17
000
FTUS44 KCRP 270903 AAA
TAFVCT
TAF AMD
KVCT 270903Z 2709/2806 15003KT 1/2SM FG VV003
      TEMPO 2709/2713 1/4SM FG VV002
     FM271400 15006KT 6SM BR FEW004 BKN009
     FM271700 17012KT P6SM OVC015
     FM280100 15010KT P6SM OVC007=

USA.gov is the U.S. government's official web portal to all federal, state and local government web resources and services.